sensor_id;sensor_type;location;lat;lon;timestamp;P1;durP1;ratioP1;P2;durP2;ratioP2
9142;SDS011;54072;47.410;8.446;2022-08-18T00:00:07;6.77;;;6.07;;
9142;SDS011;54072;47.410;8.446;2022-08-18T00:02:38;6.37;;;5.70;;
9142;SDS011;54072;47.410;8.446;2022-08-18T00:05:06;7.10;;;6.40;;
9142;SDS011;54072;47.410;8.446;2022-08-18T00:07:34;6.00;;;5.40;;
9142;SDS011;54072;47.410;8.446;2022-08-18T00:10:02;5.67;;;5.13;;
9142;SDS011;54072;47.410;8.446;2022-08-18T00:12:31;5.63;;;5.13;;
9142;SDS011;54072;47.410;8.446;2022-08-18T00:14:59;5.70;;;5.20;;
9142;SDS011;54072;47.410;8.446;2022-08-18T00:17:29;6.07;;;4.87;;
9142;SDS011;54072;47.410;8.446;2022-08-18T00:19:58;5.60;;;5.10;;
9142;SDS011;54072;47.410;8.446;2022-08-18T00:22:26;6.07;;;5.47;;
9142;SDS011;54072;47.410;8.446;2022-08-18T00:24:54;6.33;;;5.73;;
9142;SDS011;54072;47.410;8.446;2022-08-18T00:27:23;5.23;;;4.80;;
9142;SDS011;54072;47.410;8.446;2022-08-18T00:29:52;5.67;;;5.17;;
9142;SDS011;54072;47.410;8.446;2022-08-18T00:32:20;5.93;;;5.03;;
9142;SDS011;54072;47.410;8.446;2022-08-18T00:34:48;6.33;;;5.20;;
9142;SDS011;54072;47.410;8.446;2022-08-18T00:37:17;5.37;;;4.93;;
9142;SDS011;54072;47.410;8.446;2022-08-18T00:39:45;7.40;;;5.60;;
9142;SDS011;54072;47.410;8.446;2022-08-18T00:42:13;5.80;;;5.20;;
9142;SDS011;54072;47.410;8.446;2022-08-18T00:44:41;6.07;;;5.57;;
9142;SDS011;54072;47.410;8.446;2022-08-18T00:47:08;5.47;;;4.97;;
9142;SDS011;54072;47.410;8.446;2022-08-18T00:49:37;5.60;;;5.07;;
9142;SDS011;54072;47.410;8.446;2022-08-18T00:52:06;6.40;;;5.60;;
9142;SDS011;54072;47.410;8.446;2022-08-18T00:54:36;6.40;;;5.80;;
9142;SDS011;54072;47.410;8.446;2022-08-18T00:57:05;6.13;;;5.63;;
9142;SDS011;54072;47.410;8.446;2022-08-18T00:59:34;6.30;;;5.60;;
9142;SDS011;54072;47.410;8.446;2022-08-18T01:02:04;6.33;;;5.80;;
9142;SDS011;54072;47.410;8.446;2022-08-18T01:04:34;5.70;;;5.20;;
9142;SDS011;54072;47.410;8.446;2022-08-18T01:07:05;5.83;;;5.33;;
9142;SDS011;54072;47.410;8.446;2022-08-18T01:09:35;5.60;;;5.03;;
9142;SDS011;54072;47.410;8.446;2022-08-18T01:12:03;7.37;;;5.70;;
9142;SDS011;54072;47.410;8.446;2022-08-18T01:14:31;5.87;;;5.27;;
9142;SDS011;54072;47.410;8.446;2022-08-18T01:16:58;6.53;;;5.87;;
9142;SDS011;54072;47.410;8.446;2022-08-18T01:19:43;5.87;;;5.33;;
9142;SDS011;54072;47.410;8.446;2022-08-18T01:22:29;5.77;;;5.27;;
9142;SDS011;54072;47.410;8.446;2022-08-18T01:25:02;5.60;;;5.10;;
9142;SDS011;54072;47.410;8.446;2022-08-18T01:27:47;5.53;;;5.03;;
9142;SDS011;54072;47.410;8.446;2022-08-18T01:30:15;5.10;;;4.63;;
9142;SDS011;54072;47.410;8.446;2022-08-18T01:32:43;5.30;;;4.80;;
9142;SDS011;54072;47.410;8.446;2022-08-18T01:35:12;5.40;;;4.90;;
9142;SDS011;54072;47.410;8.446;2022-08-18T01:37:41;5.13;;;4.73;;
9142;SDS011;54072;47.410;8.446;2022-08-18T01:40:11;4.90;;;4.50;;
9142;SDS011;54072;47.410;8.446;2022-08-18T01:42:39;5.30;;;4.80;;
9142;SDS011;54072;47.410;8.446;2022-08-18T01:45:09;5.20;;;4.70;;
9142;SDS011;54072;47.410;8.446;2022-08-18T01:47:37;5.77;;;5.00;;
9142;SDS011;54072;47.410;8.446;2022-08-18T01:50:06;5.57;;;4.90;;
9142;SDS011;54072;47.410;8.446;2022-08-18T01:52:34;5.53;;;5.03;;
9142;SDS011;54072;47.410;8.446;2022-08-18T01:55:02;5.73;;;4.83;;
9142;SDS011;54072;47.410;8.446;2022-08-18T01:57:31;5.53;;;5.03;;
9142;SDS011;54072;47.410;8.446;2022-08-18T01:59:59;5.20;;;4.80;;
9142;SDS011;54072;47.410;8.446;2022-08-18T02:02:27;5.30;;;4.87;;
9142;SDS011;54072;47.410;8.446;2022-08-18T02:04:59;5.60;;;5.10;;
9142;SDS011;54072;47.410;8.446;2022-08-18T02:07:28;6.30;;;5.00;;
9142;SDS011;54072;47.410;8.446;2022-08-18T02:09:55;5.20;;;4.73;;
9142;SDS011;54072;47.410;8.446;2022-08-18T02:12:23;5.47;;;4.40;;
9142;SDS011;54072;47.410;8.446;2022-08-18T02:14:52;5.10;;;4.60;;
9142;SDS011;54072;47.410;8.446;2022-08-18T02:17:20;5.03;;;4.63;;
9142;SDS011;54072;47.410;8.446;2022-08-18T02:19:48;6.27;;;5.17;;
9142;SDS011;54072;47.410;8.446;2022-08-18T02:22:16;5.30;;;4.80;;
9142;SDS011;54072;47.410;8.446;2022-08-18T02:24:44;5.07;;;4.67;;
9142;SDS011;54072;47.410;8.446;2022-08-18T02:27:12;5.70;;;5.20;;
9142;SDS011;54072;47.410;8.446;2022-08-18T02:29:40;5.77;;;5.17;;
9142;SDS011;54072;47.410;8.446;2022-08-18T02:32:09;5.37;;;4.73;;
9142;SDS011;54072;47.410;8.446;2022-08-18T02:34:37;5.77;;;5.27;;
9142;SDS011;54072;47.410;8.446;2022-08-18T02:37:06;6.03;;;5.40;;
9142;SDS011;54072;47.410;8.446;2022-08-18T02:39:35;6.87;;;5.47;;
9142;SDS011;54072;47.410;8.446;2022-08-18T02:42:03;6.50;;;5.90;;
9142;SDS011;54072;47.410;8.446;2022-08-18T02:44:31;6.67;;;5.97;;
9142;SDS011;54072;47.410;8.446;2022-08-18T02:47:00;6.40;;;5.63;;
9142;SDS011;54072;47.410;8.446;2022-08-18T02:49:29;6.03;;;5.30;;
9142;SDS011;54072;47.410;8.446;2022-08-18T02:51:57;6.40;;;5.80;;
9142;SDS011;54072;47.410;8.446;2022-08-18T02:54:24;6.27;;;5.63;;
9142;SDS011;54072;47.410;8.446;2022-08-18T02:56:52;6.80;;;5.50;;
9142;SDS011;54072;47.410;8.446;2022-08-18T02:59:22;5.83;;;5.23;;
9142;SDS011;54072;47.410;8.446;2022-08-18T03:01:51;6.23;;;5.63;;
9142;SDS011;54072;47.410;8.446;2022-08-18T03:04:22;7.37;;;5.47;;
9142;SDS011;54072;47.410;8.446;2022-08-18T03:06:56;6.20;;;5.27;;
9142;SDS011;54072;47.410;8.446;2022-08-18T03:09:24;6.60;;;6.00;;
9142;SDS011;54072;47.410;8.446;2022-08-18T03:11:51;6.40;;;5.80;;
9142;SDS011;54072;47.410;8.446;2022-08-18T03:14:20;6.43;;;5.83;;
9142;SDS011;54072;47.410;8.446;2022-08-18T03:16:47;7.03;;;6.10;;
9142;SDS011;54072;47.410;8.446;2022-08-18T03:19:15;7.17;;;5.87;;
9142;SDS011;54072;47.410;8.446;2022-08-18T03:21:44;8.20;;;6.50;;
9142;SDS011;54072;47.410;8.446;2022-08-18T03:24:13;7.97;;;7.13;;
9142;SDS011;54072;47.410;8.446;2022-08-18T03:26:44;8.60;;;7.57;;
9142;SDS011;54072;47.410;8.446;2022-08-18T03:29:13;8.40;;;7.57;;
9142;SDS011;54072;47.410;8.446;2022-08-18T03:31:41;8.77;;;8.00;;
9142;SDS011;54072;47.410;8.446;2022-08-18T03:34:10;8.90;;;8.03;;
9142;SDS011;54072;47.410;8.446;2022-08-18T03:36:38;9.43;;;8.03;;
9142;SDS011;54072;47.410;8.446;2022-08-18T03:39:08;8.00;;;7.17;;
9142;SDS011;54072;47.410;8.446;2022-08-18T03:41:37;8.57;;;7.67;;
9142;SDS011;54072;47.410;8.446;2022-08-18T03:44:05;8.30;;;7.37;;
9142;SDS011;54072;47.410;8.446;2022-08-18T03:46:33;8.40;;;7.60;;
9142;SDS011;54072;47.410;8.446;2022-08-18T03:49:01;8.40;;;7.60;;
9142;SDS011;54072;47.410;8.446;2022-08-18T03:51:30;8.47;;;7.67;;
9142;SDS011;54072;47.410;8.446;2022-08-18T03:53:58;8.80;;;7.90;;
9142;SDS011;54072;47.410;8.446;2022-08-18T03:56:27;8.23;;;7.40;;
9142;SDS011;54072;47.410;8.446;2022-08-18T03:58:58;8.73;;;7.60;;
9142;SDS011;54072;47.410;8.446;2022-08-18T04:01:27;8.97;;;7.63;;
9142;SDS011;54072;47.410;8.446;2022-08-18T04:03:56;9.00;;;8.17;;
9142;SDS011;54072;47.410;8.446;2022-08-18T04:06:25;9.63;;;8.63;;
9142;SDS011;54072;47.410;8.446;2022-08-18T04:08:53;10.70;;;9.07;;
9142;SDS011;54072;47.410;8.446;2022-08-18T04:11:21;9.90;;;8.90;;
9142;SDS011;54072;47.410;8.446;2022-08-18T04:13:49;10.23;;;9.13;;
9142;SDS011;54072;47.410;8.446;2022-08-18T04:16:18;9.80;;;8.70;;
9142;SDS011;54072;47.410;8.446;2022-08-18T04:18:45;9.83;;;8.57;;
9142;SDS011;54072;47.410;8.446;2022-08-18T04:21:13;10.60;;;9.10;;
9142;SDS011;54072;47.410;8.446;2022-08-18T04:23:40;10.67;;;9.57;;
9142;SDS011;54072;47.410;8.446;2022-08-18T04:26:08;10.33;;;9.17;;
9142;SDS011;54072;47.410;8.446;2022-08-18T04:28:36;9.97;;;8.83;;
9142;SDS011;54072;47.410;8.446;2022-08-18T04:31:04;9.70;;;8.70;;
9142;SDS011;54072;47.410;8.446;2022-08-18T04:33:33;9.53;;;8.63;;
9142;SDS011;54072;47.410;8.446;2022-08-18T04:36:05;11.00;;;9.90;;
9142;SDS011;54072;47.410;8.446;2022-08-18T04:38:34;14.03;;;11.67;;
9142;SDS011;54072;47.410;8.446;2022-08-18T04:41:01;15.13;;;12.87;;
9142;SDS011;54072;47.410;8.446;2022-08-18T04:43:30;13.87;;;12.37;;
9142;SDS011;54072;47.410;8.446;2022-08-18T04:45:57;13.37;;;11.67;;
9142;SDS011;54072;47.410;8.446;2022-08-18T04:48:28;14.00;;;12.13;;
9142;SDS011;54072;47.410;8.446;2022-08-18T04:51:04;16.60;;;13.23;;
9142;SDS011;54072;47.410;8.446;2022-08-18T04:53:33;17.70;;;13.93;;
9142;SDS011;54072;47.410;8.446;2022-08-18T04:56:16;13.73;;;12.23;;
9142;SDS011;54072;47.410;8.446;2022-08-18T04:58:46;13.47;;;11.17;;
9142;SDS011;54072;47.410;8.446;2022-08-18T05:01:16;11.77;;;10.50;;
9142;SDS011;54072;47.410;8.446;2022-08-18T05:03:44;10.90;;;9.80;;
9142;SDS011;54072;47.410;8.446;2022-08-18T05:06:13;12.50;;;10.70;;
9142;SDS011;54072;47.410;8.446;2022-08-18T05:08:41;10.93;;;9.70;;
9142;SDS011;54072;47.410;8.446;2022-08-18T05:11:08;12.83;;;9.83;;
9142;SDS011;54072;47.410;8.446;2022-08-18T05:13:36;11.07;;;9.30;;
9142;SDS011;54072;47.410;8.446;2022-08-18T05:16:04;11.27;;;9.53;;
9142;SDS011;54072;47.410;8.446;2022-08-18T05:18:35;11.70;;;10.50;;
9142;SDS011;54072;47.410;8.446;2022-08-18T05:21:04;12.07;;;10.50;;
9142;SDS011;54072;47.410;8.446;2022-08-18T05:23:33;11.20;;;9.93;;
9142;SDS011;54072;47.410;8.446;2022-08-18T05:26:01;11.17;;;10.03;;
9142;SDS011;54072;47.410;8.446;2022-08-18T05:28:30;11.60;;;10.47;;
9142;SDS011;54072;47.410;8.446;2022-08-18T05:30:57;10.47;;;9.33;;
9142;SDS011;54072;47.410;8.446;2022-08-18T05:33:25;12.23;;;9.63;;
9142;SDS011;54072;47.410;8.446;2022-08-18T05:35:55;10.97;;;9.77;;
9142;SDS011;54072;47.410;8.446;2022-08-18T05:38:32;11.80;;;10.20;;
9142;SDS011;54072;47.410;8.446;2022-08-18T05:41:05;11.57;;;9.27;;
9142;SDS011;54072;47.410;8.446;2022-08-18T05:43:33;11.10;;;9.90;;
9142;SDS011;54072;47.410;8.446;2022-08-18T05:46:01;10.43;;;9.33;;
9142;SDS011;54072;47.410;8.446;2022-08-18T05:48:30;10.17;;;9.17;;
9142;SDS011;54072;47.410;8.446;2022-08-18T05:50:58;9.17;;;8.27;;
9142;SDS011;54072;47.410;8.446;2022-08-18T05:53:28;9.13;;;8.30;;
9142;SDS011;54072;47.410;8.446;2022-08-18T05:56:11;9.23;;;8.33;;
9142;SDS011;54072;47.410;8.446;2022-08-18T05:58:57;11.37;;;9.80;;
9142;SDS011;54072;47.410;8.446;2022-08-18T06:01:27;11.33;;;8.27;;
9142;SDS011;54072;47.410;8.446;2022-08-18T06:03:56;9.33;;;7.60;;
9142;SDS011;54072;47.410;8.446;2022-08-18T06:06:27;8.70;;;7.73;;
9142;SDS011;54072;47.410;8.446;2022-08-18T06:08:56;10.27;;;8.50;;
9142;SDS011;54072;47.410;8.446;2022-08-18T06:11:25;10.03;;;9.03;;
9142;SDS011;54072;47.410;8.446;2022-08-18T06:13:53;11.60;;;10.40;;
9142;SDS011;54072;47.410;8.446;2022-08-18T06:16:23;10.40;;;9.40;;
9142;SDS011;54072;47.410;8.446;2022-08-18T06:18:53;10.80;;;9.67;;
9142;SDS011;54072;47.410;8.446;2022-08-18T06:21:27;11.77;;;10.67;;
9142;SDS011;54072;47.410;8.446;2022-08-18T06:24:04;12.00;;;10.20;;
9142;SDS011;54072;47.410;8.446;2022-08-18T06:26:36;10.60;;;9.50;;
9142;SDS011;54072;47.410;8.446;2022-08-18T06:29:09;12.37;;;10.07;;
9142;SDS011;54072;47.410;8.446;2022-08-18T06:31:41;12.17;;;10.17;;
9142;SDS011;54072;47.410;8.446;2022-08-18T06:34:13;11.70;;;10.60;;
9142;SDS011;54072;47.410;8.446;2022-08-18T06:36:46;11.33;;;10.23;;
9142;SDS011;54072;47.410;8.446;2022-08-18T06:39:16;12.03;;;10.37;;
9142;SDS011;54072;47.410;8.446;2022-08-18T06:41:50;11.80;;;10.60;;
9142;SDS011;54072;47.410;8.446;2022-08-18T06:44:20;10.80;;;9.77;;
9142;SDS011;54072;47.410;8.446;2022-08-18T06:46:49;11.93;;;10.27;;
9142;SDS011;54072;47.410;8.446;2022-08-18T06:49:25;13.90;;;9.57;;
9142;SDS011;54072;47.410;8.446;2022-08-18T06:51:54;10.60;;;9.57;;
9142;SDS011;54072;47.410;8.446;2022-08-18T06:54:26;11.43;;;10.33;;
9142;SDS011;54072;47.410;8.446;2022-08-18T06:56:56;10.60;;;9.60;;
9142;SDS011;54072;47.410;8.446;2022-08-18T06:59:25;10.97;;;9.70;;
9142;SDS011;54072;47.410;8.446;2022-08-18T07:01:53;10.00;;;9.00;;
9142;SDS011;54072;47.410;8.446;2022-08-18T07:04:40;10.17;;;8.97;;
9142;SDS011;54072;47.410;8.446;2022-08-18T07:07:12;9.90;;;9.00;;
9142;SDS011;54072;47.410;8.446;2022-08-18T07:09:40;9.60;;;8.50;;
9142;SDS011;54072;47.410;8.446;2022-08-18T07:12:09;11.07;;;9.40;;
9142;SDS011;54072;47.410;8.446;2022-08-18T07:14:44;10.70;;;9.23;;
9142;SDS011;54072;47.410;8.446;2022-08-18T07:17:12;11.40;;;10.30;;
9142;SDS011;54072;47.410;8.446;2022-08-18T07:19:40;12.17;;;10.87;;
9142;SDS011;54072;47.410;8.446;2022-08-18T07:22:08;12.03;;;10.87;;
9142;SDS011;54072;47.410;8.446;2022-08-18T07:24:38;11.57;;;10.50;;
9142;SDS011;54072;47.410;8.446;2022-08-18T07:27:07;13.17;;;11.40;;
9142;SDS011;54072;47.410;8.446;2022-08-18T07:29:36;13.30;;;11.60;;
9142;SDS011;54072;47.410;8.446;2022-08-18T07:32:07;14.03;;;12.67;;
9142;SDS011;54072;47.410;8.446;2022-08-18T07:34:40;13.30;;;12.00;;
9142;SDS011;54072;47.410;8.446;2022-08-18T07:37:11;14.13;;;12.70;;
9142;SDS011;54072;47.410;8.446;2022-08-18T07:39:42;12.33;;;11.13;;
9142;SDS011;54072;47.410;8.446;2022-08-18T07:42:11;11.43;;;10.33;;
9142;SDS011;54072;47.410;8.446;2022-08-18T07:44:45;13.10;;;11.80;;
9142;SDS011;54072;47.410;8.446;2022-08-18T07:47:16;11.93;;;10.70;;
9142;SDS011;54072;47.410;8.446;2022-08-18T07:49:45;11.13;;;10.13;;
9142;SDS011;54072;47.410;8.446;2022-08-18T07:52:26;12.07;;;10.87;;
9142;SDS011;54072;47.410;8.446;2022-08-18T07:54:57;11.23;;;10.00;;
9142;SDS011;54072;47.410;8.446;2022-08-18T07:57:28;10.27;;;9.27;;
9142;SDS011;54072;47.410;8.446;2022-08-18T08:00:04;10.27;;;9.27;;
9142;SDS011;54072;47.410;8.446;2022-08-18T08:02:37;12.00;;;8.90;;
9142;SDS011;54072;47.410;8.446;2022-08-18T08:05:08;9.63;;;8.77;;
9142;SDS011;54072;47.410;8.446;2022-08-18T08:07:39;10.20;;;9.20;;
9142;SDS011;54072;47.410;8.446;2022-08-18T08:10:21;9.80;;;8.80;;
9142;SDS011;54072;47.410;8.446;2022-08-18T08:12:52;10.07;;;9.07;;
9142;SDS011;54072;47.410;8.446;2022-08-18T08:15:29;10.10;;;9.10;;
9142;SDS011;54072;47.410;8.446;2022-08-18T08:17:59;9.67;;;8.67;;
9142;SDS011;54072;47.410;8.446;2022-08-18T08:20:31;9.57;;;8.63;;
9142;SDS011;54072;47.410;8.446;2022-08-18T08:23:04;8.13;;;7.43;;
9142;SDS011;54072;47.410;8.446;2022-08-18T08:25:36;9.17;;;8.27;;
9142;SDS011;54072;47.410;8.446;2022-08-18T08:28:14;9.50;;;8.60;;
9142;SDS011;54072;47.410;8.446;2022-08-18T08:30:47;8.97;;;8.07;;
9142;SDS011;54072;47.410;8.446;2022-08-18T08:33:18;9.70;;;8.70;;
9142;SDS011;54072;47.410;8.446;2022-08-18T08:35:50;9.50;;;8.60;;
9142;SDS011;54072;47.410;8.446;2022-08-18T08:38:20;9.60;;;8.70;;
9142;SDS011;54072;47.410;8.446;2022-08-18T08:41:04;8.60;;;7.80;;
9142;SDS011;54072;47.410;8.446;2022-08-18T08:43:34;8.97;;;8.07;;
9142;SDS011;54072;47.410;8.446;2022-08-18T08:46:07;9.13;;;8.00;;
9142;SDS011;54072;47.410;8.446;2022-08-18T08:48:38;8.20;;;7.50;;
9142;SDS011;54072;47.410;8.446;2022-08-18T08:51:11;9.03;;;8.13;;
9142;SDS011;54072;47.410;8.446;2022-08-18T08:53:42;9.03;;;8.13;;
9142;SDS011;54072;47.410;8.446;2022-08-18T08:56:12;8.73;;;7.93;;
9142;SDS011;54072;47.410;8.446;2022-08-18T08:58:42;8.98;;;8.07;;
9142;SDS011;54072;47.410;8.446;2022-08-18T09:03:57;9.20;;;8.20;;
9142;SDS011;54072;47.410;8.446;2022-08-18T09:06:27;11.18;;;8.65;;
9142;SDS011;54072;47.410;8.446;2022-08-18T09:09:05;9.10;;;8.30;;
9142;SDS011;54072;47.410;8.446;2022-08-18T09:11:43;9.43;;;8.48;;
9142;SDS011;54072;47.410;8.446;2022-08-18T09:17:05;10.30;;;9.40;;
9142;SDS011;54072;47.410;8.446;2022-08-18T09:19:42;9.05;;;8.32;;
9142;SDS011;54072;47.410;8.446;2022-08-18T09:22:17;8.68;;;7.88;;
9142;SDS011;54072;47.410;8.446;2022-08-18T09:24:52;9.30;;;8.32;;
9142;SDS011;54072;47.410;8.446;2022-08-18T09:27:31;10.15;;;9.20;;
9142;SDS011;54072;47.410;8.446;2022-08-18T09:30:35;10.02;;;9.02;;
9142;SDS011;54072;47.410;8.446;2022-08-18T09:33:00;8.98;;;8.00;;
9142;SDS011;54072;47.410;8.446;2022-08-18T09:35:43;10.10;;;8.65;;
9142;SDS011;54072;47.410;8.446;2022-08-18T09:38:15;8.95;;;7.75;;
9142;SDS011;54072;47.410;8.446;2022-08-18T09:41:04;8.55;;;6.75;;
9142;SDS011;54072;47.410;8.446;2022-08-18T09:43:56;9.38;;;7.40;;
9142;SDS011;54072;47.410;8.446;2022-08-18T09:46:54;7.93;;;7.13;;
9142;SDS011;54072;47.410;8.446;2022-08-18T09:49:42;8.05;;;7.40;;
9142;SDS011;54072;47.410;8.446;2022-08-18T09:54:59;9.27;;;8.30;;
9142;SDS011;54072;47.410;8.446;2022-08-18T09:57:27;8.40;;;7.60;;
9142;SDS011;54072;47.410;8.446;2022-08-18T09:59:57;10.10;;;8.55;;
9142;SDS011;54072;47.410;8.446;2022-08-18T10:05:22;9.35;;;8.38;;
9142;SDS011;54072;47.410;8.446;2022-08-18T10:07:52;8.50;;;7.70;;
9142;SDS011;54072;47.410;8.446;2022-08-18T10:10:23;7.82;;;7.13;;
9142;SDS011;54072;47.410;8.446;2022-08-18T10:13:00;7.97;;;7.28;;
9142;SDS011;54072;47.410;8.446;2022-08-18T10:15:31;8.18;;;7.18;;
9142;SDS011;54072;47.410;8.446;2022-08-18T10:18:04;7.88;;;7.28;;
9142;SDS011;54072;47.410;8.446;2022-08-18T10:20:38;8.25;;;7.50;;
9142;SDS011;54072;47.410;8.446;2022-08-18T10:23:08;7.72;;;6.95;;
9142;SDS011;54072;47.410;8.446;2022-08-18T10:25:39;7.15;;;6.55;;
9142;SDS011;54072;47.410;8.446;2022-08-18T10:28:07;7.55;;;6.82;;
9142;SDS011;54072;47.410;8.446;2022-08-18T10:36:05;8.30;;;7.50;;
9142;SDS011;54072;47.410;8.446;2022-08-18T10:38:37;8.20;;;7.40;;
9142;SDS011;54072;47.410;8.446;2022-08-18T10:41:10;8.07;;;7.28;;
9142;SDS011;54072;47.410;8.446;2022-08-18T10:43:39;8.23;;;7.43;;
9142;SDS011;54072;47.410;8.446;2022-08-18T10:46:13;8.80;;;7.90;;
9142;SDS011;54072;47.410;8.446;2022-08-18T10:49:03;9.25;;;8.45;;
9142;SDS011;54072;47.410;8.446;2022-08-18T10:51:39;9.55;;;8.55;;
9142;SDS011;54072;47.410;8.446;2022-08-18T10:54:14;8.40;;;7.57;;
9142;SDS011;54072;47.410;8.446;2022-08-18T10:56:48;8.73;;;7.85;;
9142;SDS011;54072;47.410;8.446;2022-08-18T10:59:18;9.35;;;8.45;;
9142;SDS011;54072;47.410;8.446;2022-08-18T11:01:54;9.20;;;8.38;;
9142;SDS011;54072;47.410;8.446;2022-08-18T11:04:27;9.50;;;8.70;;
9142;SDS011;54072;47.410;8.446;2022-08-18T11:07:02;9.23;;;8.32;;
9142;SDS011;54072;47.410;8.446;2022-08-18T11:09:30;8.82;;;7.95;;
9142;SDS011;54072;47.410;8.446;2022-08-18T11:12:01;8.50;;;7.80;;
9142;SDS011;54072;47.410;8.446;2022-08-18T11:17:18;8.43;;;7.72;;
9142;SDS011;54072;47.410;8.446;2022-08-18T11:19:48;8.68;;;7.97;;
9142;SDS011;54072;47.410;8.446;2022-08-18T11:22:21;8.60;;;7.80;;
9142;SDS011;54072;47.410;8.446;2022-08-18T11:24:49;8.50;;;7.70;;
9142;SDS011;54072;47.410;8.446;2022-08-18T11:27:20;7.78;;;7.10;;
9142;SDS011;54072;47.410;8.446;2022-08-18T11:29:48;8.00;;;7.20;;
9142;SDS011;54072;47.410;8.446;2022-08-18T11:32:18;8.77;;;7.90;;
9142;SDS011;54072;47.410;8.446;2022-08-18T11:34:49;8.60;;;7.65;;
9142;SDS011;54072;47.410;8.446;2022-08-18T11:37:19;8.07;;;7.22;;
9142;SDS011;54072;47.410;8.446;2022-08-18T11:39:48;7.80;;;7.20;;
9142;SDS011;54072;47.410;8.446;2022-08-18T11:42:17;8.43;;;7.63;;
9142;SDS011;54072;47.410;8.446;2022-08-18T11:44:46;8.70;;;7.90;;
9142;SDS011;54072;47.410;8.446;2022-08-18T11:47:15;8.35;;;7.55;;
9142;SDS011;54072;47.410;8.446;2022-08-18T11:49:47;8.38;;;7.68;;
9142;SDS011;54072;47.410;8.446;2022-08-18T11:52:17;7.78;;;7.18;;
9142;SDS011;54072;47.410;8.446;2022-08-18T11:54:46;8.07;;;7.28;;
9142;SDS011;54072;47.410;8.446;2022-08-18T12:00:00;8.38;;;7.57;;
9142;SDS011;54072;47.410;8.446;2022-08-18T12:02:48;7.90;;;7.20;;
9142;SDS011;54072;47.410;8.446;2022-08-18T12:05:26;8.68;;;7.97;;
9142;SDS011;54072;47.410;8.446;2022-08-18T12:07:54;7.68;;;7.07;;
9142;SDS011;54072;47.410;8.446;2022-08-18T12:10:22;9.90;;;7.78;;
9142;SDS011;54072;47.410;8.446;2022-08-18T12:12:50;7.95;;;7.25;;
9142;SDS011;54072;47.410;8.446;2022-08-18T12:15:28;7.15;;;6.53;;
9142;SDS011;54072;47.410;8.446;2022-08-18T12:17:55;8.82;;;7.22;;
9142;SDS011;54072;47.410;8.446;2022-08-18T12:20:23;8.48;;;7.70;;
9142;SDS011;54072;47.410;8.446;2022-08-18T12:22:50;7.47;;;6.85;;
9142;SDS011;54072;47.410;8.446;2022-08-18T12:25:21;8.13;;;7.47;;
9142;SDS011;54072;47.410;8.446;2022-08-18T12:27:49;7.57;;;6.88;;
9142;SDS011;54072;47.410;8.446;2022-08-18T12:30:17;9.75;;;7.45;;
9142;SDS011;54072;47.410;8.446;2022-08-18T12:32:46;8.30;;;7.50;;
9142;SDS011;54072;47.410;8.446;2022-08-18T12:35:16;8.88;;;7.88;;
9142;SDS011;54072;47.410;8.446;2022-08-18T12:37:43;7.05;;;6.53;;
9142;SDS011;54072;47.410;8.446;2022-08-18T12:40:26;6.65;;;6.15;;
9142;SDS011;54072;47.410;8.446;2022-08-18T12:42:54;7.32;;;6.55;;
9142;SDS011;54072;47.410;8.446;2022-08-18T12:45:22;7.05;;;6.35;;
9142;SDS011;54072;47.410;8.446;2022-08-18T12:47:52;9.48;;;6.82;;
9142;SDS011;54072;47.410;8.446;2022-08-18T12:50:19;9.57;;;7.10;;
9142;SDS011;54072;47.410;8.446;2022-08-18T12:52:48;7.32;;;6.72;;
9142;SDS011;54072;47.410;8.446;2022-08-18T12:55:16;7.13;;;6.53;;
9142;SDS011;54072;47.410;8.446;2022-08-18T12:57:44;8.07;;;7.28;;
9142;SDS011;54072;47.410;8.446;2022-08-18T13:00:12;8.77;;;7.53;;
9142;SDS011;54072;47.410;8.446;2022-08-18T13:02:39;8.85;;;7.10;;
9142;SDS011;54072;47.410;8.446;2022-08-18T13:05:08;9.73;;;7.00;;
9142;SDS011;54072;47.410;8.446;2022-08-18T13:07:36;6.85;;;6.35;;
9142;SDS011;54072;47.410;8.446;2022-08-18T13:10:04;7.20;;;6.50;;
9142;SDS011;54072;47.410;8.446;2022-08-18T13:12:32;6.50;;;5.90;;
9142;SDS011;54072;47.410;8.446;2022-08-18T13:14:59;7.22;;;6.45;;
9142;SDS011;54072;47.410;8.446;2022-08-18T13:17:27;6.95;;;6.40;;
9142;SDS011;54072;47.410;8.446;2022-08-18T13:19:55;6.70;;;6.10;;
9142;SDS011;54072;47.410;8.446;2022-08-18T13:22:23;5.93;;;5.53;;
9142;SDS011;54072;47.410;8.446;2022-08-18T13:24:51;8.48;;;6.63;;
9142;SDS011;54072;47.410;8.446;2022-08-18T13:27:19;6.28;;;5.78;;
9142;SDS011;54072;47.410;8.446;2022-08-18T13:29:47;6.55;;;6.00;;
9142;SDS011;54072;47.410;8.446;2022-08-18T13:32:15;6.50;;;6.00;;
9142;SDS011;54072;47.410;8.446;2022-08-18T13:34:43;6.35;;;5.85;;
9142;SDS011;54072;47.410;8.446;2022-08-18T13:37:11;6.85;;;6.20;;
9142;SDS011;54072;47.410;8.446;2022-08-18T13:39:41;7.38;;;6.78;;
9142;SDS011;54072;47.410;8.446;2022-08-18T13:42:09;7.63;;;6.85;;
9142;SDS011;54072;47.410;8.446;2022-08-18T13:44:36;7.47;;;6.80;;
9142;SDS011;54072;47.410;8.446;2022-08-18T13:47:06;7.15;;;6.55;;
9142;SDS011;54072;47.410;8.446;2022-08-18T13:49:35;7.10;;;6.50;;
9142;SDS011;54072;47.410;8.446;2022-08-18T13:52:02;7.00;;;6.40;;
9142;SDS011;54072;47.410;8.446;2022-08-18T13:54:37;7.07;;;6.47;;
9142;SDS011;54072;47.410;8.446;2022-08-18T13:57:06;7.05;;;6.45;;
9142;SDS011;54072;47.410;8.446;2022-08-18T13:59:33;6.88;;;6.30;;
9142;SDS011;54072;47.410;8.446;2022-08-18T14:02:02;7.20;;;6.60;;
9142;SDS011;54072;47.410;8.446;2022-08-18T14:04:31;7.93;;;7.10;;
9142;SDS011;54072;47.410;8.446;2022-08-18T14:06:58;7.40;;;6.70;;
9142;SDS011;54072;47.410;8.446;2022-08-18T14:09:27;7.47;;;6.80;;
9142;SDS011;54072;47.410;8.446;2022-08-18T14:11:56;7.50;;;6.82;;
9142;SDS011;54072;47.410;8.446;2022-08-18T14:14:25;7.38;;;6.78;;
9142;SDS011;54072;47.410;8.446;2022-08-18T14:16:52;7.75;;;7.13;;
9142;SDS011;54072;47.410;8.446;2022-08-18T14:19:20;8.43;;;7.65;;
9142;SDS011;54072;47.410;8.446;2022-08-18T14:22:05;9.43;;;7.30;;
9142;SDS011;54072;47.410;8.446;2022-08-18T14:24:50;8.70;;;7.90;;
9142;SDS011;54072;47.410;8.446;2022-08-18T14:27:36;7.85;;;7.15;;
9142;SDS011;54072;47.410;8.446;2022-08-18T14:30:06;9.57;;;7.90;;
9142;SDS011;54072;47.410;8.446;2022-08-18T14:32:34;7.75;;;7.03;;
9142;SDS011;54072;47.410;8.446;2022-08-18T14:35:03;9.15;;;7.55;;
9142;SDS011;54072;47.410;8.446;2022-08-18T14:37:30;8.23;;;7.47;;
9142;SDS011;54072;47.410;8.446;2022-08-18T14:39:58;8.80;;;7.32;;
9142;SDS011;54072;47.410;8.446;2022-08-18T14:42:26;9.00;;;7.30;;
9142;SDS011;54072;47.410;8.446;2022-08-18T14:44:54;8.75;;;7.80;;
9142;SDS011;54072;47.410;8.446;2022-08-18T14:47:24;8.55;;;7.82;;
9142;SDS011;54072;47.410;8.446;2022-08-18T14:49:54;9.43;;;8.20;;
9142;SDS011;54072;47.410;8.446;2022-08-18T14:52:23;8.70;;;7.75;;
9142;SDS011;54072;47.410;8.446;2022-08-18T14:54:52;8.40;;;7.47;;
9142;SDS011;54072;47.410;8.446;2022-08-18T14:57:20;8.60;;;7.70;;
9142;SDS011;54072;47.410;8.446;2022-08-18T14:59:48;8.80;;;7.90;;
9142;SDS011;54072;47.410;8.446;2022-08-18T15:02:15;8.60;;;7.80;;
9142;SDS011;54072;47.410;8.446;2022-08-18T15:04:44;9.30;;;8.40;;
9142;SDS011;54072;47.410;8.446;2022-08-18T15:07:11;9.63;;;8.63;;
9142;SDS011;54072;47.410;8.446;2022-08-18T15:09:39;10.03;;;9.13;;
9142;SDS011;54072;47.410;8.446;2022-08-18T15:12:06;10.77;;;9.70;;
9142;SDS011;54072;47.410;8.446;2022-08-18T15:14:34;10.80;;;9.77;;
9142;SDS011;54072;47.410;8.446;2022-08-18T15:17:03;10.70;;;9.60;;
9142;SDS011;54072;47.410;8.446;2022-08-18T15:19:31;10.20;;;9.30;;
9142;SDS011;54072;47.410;8.446;2022-08-18T15:22:00;11.30;;;10.13;;
9142;SDS011;54072;47.410;8.446;2022-08-18T15:24:45;11.37;;;10.23;;
9142;SDS011;54072;47.410;8.446;2022-08-18T15:27:31;11.63;;;10.53;;
9142;SDS011;54072;47.410;8.446;2022-08-18T15:30:00;12.13;;;10.53;;
9142;SDS011;54072;47.410;8.446;2022-08-18T15:32:29;11.87;;;10.57;;
9142;SDS011;54072;47.410;8.446;2022-08-18T15:34:57;11.10;;;10.00;;
9142;SDS011;54072;47.410;8.446;2022-08-18T15:37:26;12.03;;;10.33;;